sensor_id;sensor_type;location;lat;lon;timestamp;P1;durP1;ratioP1;P2;durP2;ratioP2
25049;SDS011;13046;49.814;9.918;2023-06-10T00:00:16;14.20;;;13.10;;
25049;SDS011;13046;49.814;9.918;2023-06-10T00:02:42;16.02;;;14.52;;
25049;SDS011;13046;49.814;9.918;2023-06-10T00:05:09;16.52;;;15.15;;
25049;SDS011;13046;49.814;9.918;2023-06-10T00:07:35;16.02;;;14.55;;
25049;SDS011;13046;49.814;9.918;2023-06-10T00:10:08;15.05;;;13.77;;
25049;SDS011;13046;49.814;9.918;2023-06-10T00:12:35;14.30;;;13.20;;
25049;SDS011;13046;49.814;9.918;2023-06-10T00:15:04;16.63;;;15.13;;
25049;SDS011;13046;49.814;9.918;2023-06-10T00:17:30;14.48;;;13.27;;
25049;SDS011;13046;49.814;9.918;2023-06-10T00:19:56;15.65;;;14.13;;
25049;SDS011;13046;49.814;9.918;2023-06-10T00:22:22;15.50;;;14.10;;
25049;SDS011;13046;49.814;9.918;2023-06-10T00:24:49;17.80;;;16.30;;
25049;SDS011;13046;49.814;9.918;2023-06-10T00:27:16;16.63;;;15.27;;
25049;SDS011;13046;49.814;9.918;2023-06-10T00:29:42;16.20;;;14.65;;
25049;SDS011;13046;49.814;9.918;2023-06-10T00:32:08;17.73;;;16.10;;
25049;SDS011;13046;49.814;9.918;2023-06-10T00:34:34;16.67;;;15.13;;
25049;SDS011;13046;49.814;9.918;2023-06-10T00:37:00;16.55;;;15.07;;
25049;SDS011;13046;49.814;9.918;2023-06-10T00:39:26;17.38;;;15.68;;
25049;SDS011;13046;49.814;9.918;2023-06-10T00:41:52;17.00;;;15.60;;
25049;SDS011;13046;49.814;9.918;2023-06-10T00:44:18;17.13;;;15.55;;
25049;SDS011;13046;49.814;9.918;2023-06-10T00:46:45;16.05;;;14.75;;
25049;SDS011;13046;49.814;9.918;2023-06-10T00:49:11;15.25;;;14.05;;
25049;SDS011;13046;49.814;9.918;2023-06-10T00:51:37;16.80;;;15.50;;
25049;SDS011;13046;49.814;9.918;2023-06-10T00:54:04;17.15;;;15.48;;
25049;SDS011;13046;49.814;9.918;2023-06-10T00:56:30;17.13;;;15.50;;
25049;SDS011;13046;49.814;9.918;2023-06-10T00:58:57;17.42;;;16.02;;
25049;SDS011;13046;49.814;9.918;2023-06-10T01:01:24;17.00;;;15.50;;
25049;SDS011;13046;49.814;9.918;2023-06-10T01:03:52;18.50;;;16.70;;
25049;SDS011;13046;49.814;9.918;2023-06-10T01:06:23;17.20;;;15.80;;
25049;SDS011;13046;49.814;9.918;2023-06-10T01:09:12;16.75;;;15.35;;
25049;SDS011;13046;49.814;9.918;2023-06-10T01:11:56;17.67;;;16.17;;
25049;SDS011;13046;49.814;9.918;2023-06-10T01:14:25;16.00;;;14.60;;
25049;SDS011;13046;49.814;9.918;2023-06-10T01:16:55;17.85;;;16.23;;
25049;SDS011;13046;49.814;9.918;2023-06-10T01:19:22;19.05;;;17.05;;
25049;SDS011;13046;49.814;9.918;2023-06-10T01:21:49;17.05;;;15.48;;
25049;SDS011;13046;49.814;9.918;2023-06-10T01:24:17;17.10;;;15.70;;
25049;SDS011;13046;49.814;9.918;2023-06-10T01:26:44;17.27;;;15.77;;
25049;SDS011;13046;49.814;9.918;2023-06-10T01:29:58;16.40;;;14.82;;
25049;SDS011;13046;49.814;9.918;2023-06-10T01:32:12;17.58;;;15.82;;
25049;SDS011;13046;49.814;9.918;2023-06-10T01:34:40;16.90;;;15.50;;
25049;SDS011;13046;49.814;9.918;2023-06-10T01:37:08;18.95;;;17.08;;
25049;SDS011;13046;49.814;9.918;2023-06-10T01:39:38;17.73;;;16.20;;
25049;SDS011;13046;49.814;9.918;2023-06-10T01:42:05;17.95;;;16.25;;
25049;SDS011;13046;49.814;9.918;2023-06-10T01:44:34;18.30;;;16.70;;
25049;SDS011;13046;49.814;9.918;2023-06-10T01:47:01;18.60;;;17.00;;
25049;SDS011;13046;49.814;9.918;2023-06-10T01:49:27;18.50;;;17.00;;
25049;SDS011;13046;49.814;9.918;2023-06-10T01:51:53;17.45;;;15.95;;
25049;SDS011;13046;49.814;9.918;2023-06-10T01:54:19;18.48;;;16.98;;
25049;SDS011;13046;49.814;9.918;2023-06-10T01:56:45;18.00;;;16.40;;
25049;SDS011;13046;49.814;9.918;2023-06-10T01:59:12;17.50;;;16.02;;
25049;SDS011;13046;49.814;9.918;2023-06-10T02:01:38;18.30;;;16.77;;
25049;SDS011;13046;49.814;9.918;2023-06-10T02:04:04;18.17;;;16.55;;
25049;SDS011;13046;49.814;9.918;2023-06-10T02:06:31;20.33;;;18.27;;
25049;SDS011;13046;49.814;9.918;2023-06-10T02:08:57;18.58;;;16.85;;
25049;SDS011;13046;49.814;9.918;2023-06-10T02:11:23;17.13;;;15.77;;
25049;SDS011;13046;49.814;9.918;2023-06-10T02:13:50;17.73;;;15.93;;
25049;SDS011;13046;49.814;9.918;2023-06-10T02:16:17;17.63;;;16.10;;
25049;SDS011;13046;49.814;9.918;2023-06-10T02:18:43;18.95;;;17.25;;
25049;SDS011;13046;49.814;9.918;2023-06-10T02:21:11;20.08;;;18.05;;
25049;SDS011;13046;49.814;9.918;2023-06-10T02:23:37;17.58;;;16.08;;
25049;SDS011;13046;49.814;9.918;2023-06-10T02:26:03;18.15;;;16.55;;
25049;SDS011;13046;49.814;9.918;2023-06-10T02:28:29;16.90;;;15.38;;
25049;SDS011;13046;49.814;9.918;2023-06-10T02:30:57;21.90;;;17.80;;
25049;SDS011;13046;49.814;9.918;2023-06-10T02:33:24;17.60;;;16.00;;
25049;SDS011;13046;49.814;9.918;2023-06-10T02:35:50;18.52;;;16.92;;
25049;SDS011;13046;49.814;9.918;2023-06-10T02:38:17;19.05;;;17.45;;
25049;SDS011;13046;49.814;9.918;2023-06-10T02:40:43;18.05;;;16.60;;
25049;SDS011;13046;49.814;9.918;2023-06-10T02:43:11;18.35;;;16.80;;
25049;SDS011;13046;49.814;9.918;2023-06-10T02:45:37;19.38;;;17.67;;
25049;SDS011;13046;49.814;9.918;2023-06-10T02:48:04;21.40;;;17.25;;
25049;SDS011;13046;49.814;9.918;2023-06-10T02:50:32;17.85;;;16.25;;
25049;SDS011;13046;49.814;9.918;2023-06-10T02:53:06;17.63;;;16.02;;
25049;SDS011;13046;49.814;9.918;2023-06-10T02:55:35;19.52;;;17.83;;
25049;SDS011;13046;49.814;9.918;2023-06-10T02:58:03;18.83;;;17.23;;
25049;SDS011;13046;49.814;9.918;2023-06-10T03:00:30;18.13;;;16.52;;
25049;SDS011;13046;49.814;9.918;2023-06-10T03:02:58;17.92;;;16.17;;
25049;SDS011;13046;49.814;9.918;2023-06-10T03:05:31;13.35;;;12.18;;
25049;SDS011;13046;49.814;9.918;2023-06-10T03:07:59;21.65;;;19.70;;
25049;SDS011;13046;49.814;9.918;2023-06-10T03:10:26;19.13;;;17.42;;
25049;SDS011;13046;49.814;9.918;2023-06-10T03:12:52;18.98;;;17.17;;
25049;SDS011;13046;49.814;9.918;2023-06-10T03:15:19;19.52;;;17.65;;
25049;SDS011;13046;49.814;9.918;2023-06-10T03:17:46;18.10;;;16.60;;
25049;SDS011;13046;49.814;9.918;2023-06-10T03:20:12;19.65;;;17.75;;
25049;SDS011;13046;49.814;9.918;2023-06-10T03:22:41;19.05;;;17.45;;
25049;SDS011;13046;49.814;9.918;2023-06-10T03:25:08;20.00;;;18.27;;
25049;SDS011;13046;49.814;9.918;2023-06-10T03:27:42;19.45;;;17.33;;
25049;SDS011;13046;49.814;9.918;2023-06-10T03:30:09;20.55;;;18.77;;
25049;SDS011;13046;49.814;9.918;2023-06-10T03:32:37;18.60;;;16.90;;
25049;SDS011;13046;49.814;9.918;2023-06-10T03:35:05;19.75;;;18.05;;
25049;SDS011;13046;49.814;9.918;2023-06-10T03:37:32;20.67;;;18.88;;
25049;SDS011;13046;49.814;9.918;2023-06-10T03:39:58;18.77;;;17.15;;
25049;SDS011;13046;49.814;9.918;2023-06-10T03:42:25;18.83;;;17.02;;
25049;SDS011;13046;49.814;9.918;2023-06-10T03:44:51;18.08;;;16.42;;
25049;SDS011;13046;49.814;9.918;2023-06-10T03:47:17;19.48;;;17.77;;
25049;SDS011;13046;49.814;9.918;2023-06-10T03:49:44;20.67;;;18.80;;
25049;SDS011;13046;49.814;9.918;2023-06-10T03:52:10;20.63;;;18.65;;
25049;SDS011;13046;49.814;9.918;2023-06-10T03:54:37;20.05;;;18.35;;
25049;SDS011;13046;49.814;9.918;2023-06-10T03:57:03;19.92;;;18.20;;
25049;SDS011;13046;49.814;9.918;2023-06-10T03:59:30;20.42;;;18.38;;
25049;SDS011;13046;49.814;9.918;2023-06-10T04:01:56;20.27;;;18.48;;
25049;SDS011;13046;49.814;9.918;2023-06-10T04:04:23;21.85;;;19.80;;
25049;SDS011;13046;49.814;9.918;2023-06-10T04:06:49;20.02;;;18.15;;
25049;SDS011;13046;49.814;9.918;2023-06-10T04:09:15;19.13;;;17.20;;
25049;SDS011;13046;49.814;9.918;2023-06-10T04:11:43;20.63;;;18.80;;
25049;SDS011;13046;49.814;9.918;2023-06-10T04:14:09;18.88;;;17.30;;
25049;SDS011;13046;49.814;9.918;2023-06-10T04:16:35;18.83;;;17.13;;
25049;SDS011;13046;49.814;9.918;2023-06-10T04:19:02;20.58;;;18.73;;
25049;SDS011;13046;49.814;9.918;2023-06-10T04:21:28;19.45;;;17.63;;
25049;SDS011;13046;49.814;9.918;2023-06-10T04:23:54;19.83;;;18.02;;
25049;SDS011;13046;49.814;9.918;2023-06-10T04:26:20;19.13;;;17.52;;
25049;SDS011;13046;49.814;9.918;2023-06-10T04:28:47;20.15;;;18.30;;
25049;SDS011;13046;49.814;9.918;2023-06-10T04:31:14;20.92;;;19.13;;
25049;SDS011;13046;49.814;9.918;2023-06-10T04:33:41;20.77;;;18.95;;
25049;SDS011;13046;49.814;9.918;2023-06-10T04:36:07;20.33;;;18.33;;
25049;SDS011;13046;49.814;9.918;2023-06-10T04:38:34;20.20;;;18.27;;
25049;SDS011;13046;49.814;9.918;2023-06-10T04:41:00;20.52;;;18.48;;
25049;SDS011;13046;49.814;9.918;2023-06-10T04:43:30;18.67;;;17.08;;
25049;SDS011;13046;49.814;9.918;2023-06-10T04:45:58;19.08;;;17.33;;
25049;SDS011;13046;49.814;9.918;2023-06-10T04:48:24;18.73;;;17.08;;
25049;SDS011;13046;49.814;9.918;2023-06-10T04:50:52;20.10;;;18.17;;
25049;SDS011;13046;49.814;9.918;2023-06-10T04:53:18;17.27;;;15.68;;
25049;SDS011;13046;49.814;9.918;2023-06-10T04:55:45;19.00;;;17.30;;
25049;SDS011;13046;49.814;9.918;2023-06-10T04:58:13;19.92;;;18.02;;
25049;SDS011;13046;49.814;9.918;2023-06-10T05:00:39;18.48;;;16.77;;
25049;SDS011;13046;49.814;9.918;2023-06-10T05:03:05;21.98;;;18.60;;
25049;SDS011;13046;49.814;9.918;2023-06-10T05:05:31;18.92;;;17.13;;
25049;SDS011;13046;49.814;9.918;2023-06-10T05:07:57;17.95;;;16.45;;
25049;SDS011;13046;49.814;9.918;2023-06-10T05:10:23;18.45;;;16.40;;
25049;SDS011;13046;49.814;9.918;2023-06-10T05:12:49;17.98;;;16.58;;
25049;SDS011;13046;49.814;9.918;2023-06-10T05:15:16;18.92;;;17.23;;
25049;SDS011;13046;49.814;9.918;2023-06-10T05:17:42;19.48;;;17.40;;
25049;SDS011;13046;49.814;9.918;2023-06-10T05:20:08;18.63;;;16.92;;
25049;SDS011;13046;49.814;9.918;2023-06-10T05:22:34;18.95;;;17.23;;
25049;SDS011;13046;49.814;9.918;2023-06-10T05:25:00;19.98;;;18.20;;
25049;SDS011;13046;49.814;9.918;2023-06-10T05:27:26;18.58;;;16.88;;
25049;SDS011;13046;49.814;9.918;2023-06-10T05:29:52;18.08;;;16.35;;
25049;SDS011;13046;49.814;9.918;2023-06-10T05:32:18;18.00;;;16.30;;
25049;SDS011;13046;49.814;9.918;2023-06-10T05:34:44;18.23;;;16.55;;
25049;SDS011;13046;49.814;9.918;2023-06-10T05:37:10;19.25;;;16.60;;
25049;SDS011;13046;49.814;9.918;2023-06-10T05:39:36;18.38;;;16.77;;
25049;SDS011;13046;49.814;9.918;2023-06-10T05:42:03;18.77;;;16.90;;
25049;SDS011;13046;49.814;9.918;2023-06-10T05:44:29;19.30;;;17.70;;
25049;SDS011;13046;49.814;9.918;2023-06-10T05:46:55;18.50;;;16.58;;
25049;SDS011;13046;49.814;9.918;2023-06-10T05:49:23;17.08;;;15.70;;
25049;SDS011;13046;49.814;9.918;2023-06-10T05:51:49;18.88;;;17.00;;
25049;SDS011;13046;49.814;9.918;2023-06-10T05:54:17;17.52;;;16.13;;
25049;SDS011;13046;49.814;9.918;2023-06-10T05:56:43;16.40;;;14.73;;
25049;SDS011;13046;49.814;9.918;2023-06-10T05:59:09;18.42;;;16.88;;
25049;SDS011;13046;49.814;9.918;2023-06-10T06:01:36;17.50;;;15.80;;
25049;SDS011;13046;49.814;9.918;2023-06-10T06:04:02;16.52;;;15.00;;
25049;SDS011;13046;49.814;9.918;2023-06-10T06:06:28;17.17;;;15.68;;
25049;SDS011;13046;49.814;9.918;2023-06-10T06:08:54;17.75;;;16.02;;
25049;SDS011;13046;49.814;9.918;2023-06-10T06:11:20;17.63;;;15.93;;
25049;SDS011;13046;49.814;9.918;2023-06-10T06:13:46;16.73;;;15.32;;
25049;SDS011;13046;49.814;9.918;2023-06-10T06:16:13;17.25;;;15.52;;
25049;SDS011;13046;49.814;9.918;2023-06-10T06:18:40;18.42;;;16.95;;
25049;SDS011;13046;49.814;9.918;2023-06-10T06:21:06;17.27;;;15.65;;
25049;SDS011;13046;49.814;9.918;2023-06-10T06:23:32;16.67;;;14.95;;
25049;SDS011;13046;49.814;9.918;2023-06-10T06:25:58;15.70;;;14.15;;
25049;SDS011;13046;49.814;9.918;2023-06-10T06:28:24;15.80;;;14.50;;
25049;SDS011;13046;49.814;9.918;2023-06-10T06:30:54;15.75;;;14.32;;
25049;SDS011;13046;49.814;9.918;2023-06-10T06:33:20;16.05;;;14.65;;
25049;SDS011;13046;49.814;9.918;2023-06-10T06:35:46;15.48;;;14.27;;
25049;SDS011;13046;49.814;9.918;2023-06-10T06:38:12;15.13;;;13.80;;
25049;SDS011;13046;49.814;9.918;2023-06-10T06:40:38;17.17;;;14.35;;
25049;SDS011;13046;49.814;9.918;2023-06-10T06:43:04;14.68;;;13.43;;
25049;SDS011;13046;49.814;9.918;2023-06-10T06:46:02;14.32;;;13.02;;
25049;SDS011;13046;49.814;9.918;2023-06-10T06:48:28;13.27;;;11.95;;
25049;SDS011;13046;49.814;9.918;2023-06-10T06:50:54;18.23;;;11.98;;
25049;SDS011;13046;49.814;9.918;2023-06-10T06:53:21;14.43;;;13.07;;
25049;SDS011;13046;49.814;9.918;2023-06-10T06:55:47;14.35;;;12.95;;
25049;SDS011;13046;49.814;9.918;2023-06-10T06:58:13;15.60;;;14.30;;
25049;SDS011;13046;49.814;9.918;2023-06-10T07:00:39;16.83;;;15.25;;
25049;SDS011;13046;49.814;9.918;2023-06-10T07:03:05;15.98;;;14.55;;
25049;SDS011;13046;49.814;9.918;2023-06-10T07:05:31;14.50;;;13.13;;
25049;SDS011;13046;49.814;9.918;2023-06-10T07:07:57;15.82;;;14.40;;
25049;SDS011;13046;49.814;9.918;2023-06-10T07:10:24;19.40;;;13.63;;
25049;SDS011;13046;49.814;9.918;2023-06-10T07:12:50;16.05;;;14.48;;
25049;SDS011;13046;49.814;9.918;2023-06-10T07:15:17;16.15;;;14.75;;
25049;SDS011;13046;49.814;9.918;2023-06-10T07:17:43;13.65;;;12.27;;
25049;SDS011;13046;49.814;9.918;2023-06-10T07:20:10;15.60;;;14.15;;
25049;SDS011;13046;49.814;9.918;2023-06-10T07:22:36;15.63;;;13.55;;
25049;SDS011;13046;49.814;9.918;2023-06-10T07:25:04;14.98;;;13.77;;
25049;SDS011;13046;49.814;9.918;2023-06-10T07:27:30;15.40;;;13.45;;
25049;SDS011;13046;49.814;9.918;2023-06-10T07:29:56;14.82;;;13.57;;
25049;SDS011;13046;49.814;9.918;2023-06-10T07:32:22;15.15;;;13.95;;
25049;SDS011;13046;49.814;9.918;2023-06-10T07:34:49;14.40;;;12.98;;
25049;SDS011;13046;49.814;9.918;2023-06-10T07:37:15;13.57;;;12.35;;
25049;SDS011;13046;49.814;9.918;2023-06-10T07:39:41;14.63;;;13.27;;
25049;SDS011;13046;49.814;9.918;2023-06-10T07:42:08;14.38;;;12.95;;
25049;SDS011;13046;49.814;9.918;2023-06-10T07:44:35;15.45;;;14.07;;
25049;SDS011;13046;49.814;9.918;2023-06-10T07:47:01;14.10;;;12.65;;
25049;SDS011;13046;49.814;9.918;2023-06-10T07:49:27;13.63;;;12.45;;
25049;SDS011;13046;49.814;9.918;2023-06-10T07:51:56;13.73;;;12.43;;
25049;SDS011;13046;49.814;9.918;2023-06-10T07:54:22;13.40;;;12.30;;
25049;SDS011;13046;49.814;9.918;2023-06-10T07:56:48;13.82;;;12.48;;
25049;SDS011;13046;49.814;9.918;2023-06-10T07:59:14;13.68;;;12.55;;
25049;SDS011;13046;49.814;9.918;2023-06-10T08:01:40;13.13;;;12.10;;
25049;SDS011;13046;49.814;9.918;2023-06-10T08:04:07;13.30;;;12.13;;
25049;SDS011;13046;49.814;9.918;2023-06-10T08:06:33;14.35;;;12.93;;
25049;SDS011;13046;49.814;9.918;2023-06-10T08:09:01;12.43;;;11.23;;
25049;SDS011;13046;49.814;9.918;2023-06-10T08:11:27;13.35;;;12.35;;
25049;SDS011;13046;49.814;9.918;2023-06-10T08:13:54;13.77;;;11.20;;
25049;SDS011;13046;49.814;9.918;2023-06-10T08:16:20;12.73;;;11.35;;
25049;SDS011;13046;49.814;9.918;2023-06-10T08:18:46;11.32;;;10.52;;
25049;SDS011;13046;49.814;9.918;2023-06-10T08:21:12;13.68;;;12.35;;
25049;SDS011;13046;49.814;9.918;2023-06-10T08:23:39;13.25;;;12.15;;
25049;SDS011;13046;49.814;9.918;2023-06-10T08:26:05;12.75;;;11.55;;
25049;SDS011;13046;49.814;9.918;2023-06-10T08:28:31;24.75;;;10.98;;
25049;SDS011;13046;49.814;9.918;2023-06-10T08:30:57;11.30;;;10.38;;
25049;SDS011;13046;49.814;9.918;2023-06-10T08:33:23;11.05;;;10.20;;
25049;SDS011;13046;49.814;9.918;2023-06-10T08:35:49;11.43;;;10.27;;
25049;SDS011;13046;49.814;9.918;2023-06-10T08:38:15;10.88;;;9.98;;
25049;SDS011;13046;49.814;9.918;2023-06-10T08:40:41;10.55;;;9.73;;
25049;SDS011;13046;49.814;9.918;2023-06-10T08:43:08;10.15;;;9.13;;
25049;SDS011;13046;49.814;9.918;2023-06-10T08:45:36;13.35;;;11.98;;
25049;SDS011;13046;49.814;9.918;2023-06-10T08:48:03;10.65;;;9.73;;
25049;SDS011;13046;49.814;9.918;2023-06-10T08:50:35;10.25;;;9.35;;
25049;SDS011;13046;49.814;9.918;2023-06-10T08:53:03;12.20;;;9.60;;
25049;SDS011;13046;49.814;9.918;2023-06-10T08:55:31;10.27;;;9.43;;
25049;SDS011;13046;49.814;9.918;2023-06-10T08:58:01;10.85;;;9.75;;
25049;SDS011;13046;49.814;9.918;2023-06-10T09:00:27;9.15;;;8.35;;
25049;SDS011;13046;49.814;9.918;2023-06-10T09:02:54;8.90;;;8.05;;
25049;SDS011;13046;49.814;9.918;2023-06-10T09:05:20;9.30;;;8.50;;
25049;SDS011;13046;49.814;9.918;2023-06-10T09:07:46;9.05;;;8.27;;
25049;SDS011;13046;49.814;9.918;2023-06-10T09:10:13;14.00;;;8.43;;
25049;SDS011;13046;49.814;9.918;2023-06-10T09:12:39;9.80;;;8.52;;
25049;SDS011;13046;49.814;9.918;2023-06-10T09:15:06;9.18;;;8.38;;
25049;SDS011;13046;49.814;9.918;2023-06-10T09:17:33;9.07;;;7.97;;
25049;SDS011;13046;49.814;9.918;2023-06-10T09:20:01;8.93;;;8.23;;
25049;SDS011;13046;49.814;9.918;2023-06-10T09:22:27;9.43;;;7.97;;
25049;SDS011;13046;49.814;9.918;2023-06-10T09:25:03;8.13;;;7.43;;
25049;SDS011;13046;49.814;9.918;2023-06-10T09:27:30;7.97;;;7.38;;
25049;SDS011;13046;49.814;9.918;2023-06-10T09:29:59;8.20;;;7.47;;
25049;SDS011;13046;49.814;9.918;2023-06-10T09:32:25;8.35;;;7.65;;
25049;SDS011;13046;49.814;9.918;2023-06-10T09:34:53;7.80;;;7.13;;
25049;SDS011;13046;49.814;9.918;2023-06-10T09:37:25;7.85;;;7.10;;
25049;SDS011;13046;49.814;9.918;2023-06-10T09:40:01;7.65;;;6.75;;
25049;SDS011;13046;49.814;9.918;2023-06-10T09:42:29;7.88;;;6.43;;
25049;SDS011;13046;49.814;9.918;2023-06-10T09:44:57;7.05;;;6.50;;
25049;SDS011;13046;49.814;9.918;2023-06-10T09:47:23;8.32;;;7.60;;
25049;SDS011;13046;49.814;9.918;2023-06-10T09:49:50;7.07;;;6.47;;
25049;SDS011;13046;49.814;9.918;2023-06-10T09:52:36;7.75;;;6.93;;
25049;SDS011;13046;49.814;9.918;2023-06-10T09:55:03;7.65;;;6.82;;
25049;SDS011;13046;49.814;9.918;2023-06-10T09:57:32;7.18;;;6.57;;
25049;SDS011;13046;49.814;9.918;2023-06-10T09:59:58;6.20;;;5.70;;
25049;SDS011;13046;49.814;9.918;2023-06-10T10:02:25;6.80;;;6.20;;
25049;SDS011;13046;49.814;9.918;2023-06-10T10:04:51;7.18;;;6.60;;
25049;SDS011;13046;49.814;9.918;2023-06-10T10:07:17;7.13;;;6.43;;
25049;SDS011;13046;49.814;9.918;2023-06-10T10:09:43;7.20;;;6.60;;
25049;SDS011;13046;49.814;9.918;2023-06-10T10:12:09;7.43;;;6.78;;
25049;SDS011;13046;49.814;9.918;2023-06-10T10:14:36;6.45;;;5.95;;
25049;SDS011;13046;49.814;9.918;2023-06-10T10:17:07;8.18;;;6.28;;
25049;SDS011;13046;49.814;9.918;2023-06-10T10:19:36;7.03;;;6.40;;
25049;SDS011;13046;49.814;9.918;2023-06-10T10:22:07;7.78;;;7.00;;
25049;SDS011;13046;49.814;9.918;2023-06-10T10:24:38;7.00;;;6.50;;
25049;SDS011;13046;49.814;9.918;2023-06-10T10:27:09;6.07;;;5.22;;
25049;SDS011;13046;49.814;9.918;2023-06-10T10:29:38;9.02;;;5.90;;
25049;SDS011;13046;49.814;9.918;2023-06-10T10:32:05;6.40;;;5.80;;
25049;SDS011;13046;49.814;9.918;2023-06-10T10:37:01;7.05;;;6.35;;
25049;SDS011;13046;49.814;9.918;2023-06-10T10:39:28;7.05;;;6.53;;
25049;SDS011;13046;49.814;9.918;2023-06-10T10:41:55;7.63;;;6.97;;
25049;SDS011;13046;49.814;9.918;2023-06-10T10:44:21;7.13;;;6.53;;
25049;SDS011;13046;49.814;9.918;2023-06-10T10:46:50;6.72;;;6.05;;
25049;SDS011;13046;49.814;9.918;2023-06-10T10:49:17;7.05;;;6.45;;
25049;SDS011;13046;49.814;9.918;2023-06-10T10:51:59;6.85;;;6.20;;
25049;SDS011;13046;49.814;9.918;2023-06-10T10:54:29;6.80;;;6.20;;
25049;SDS011;13046;49.814;9.918;2023-06-10T11:02:33;7.03;;;6.32;;
25049;SDS011;13046;49.814;9.918;2023-06-10T11:05:00;5.70;;;5.28;;
25049;SDS011;13046;49.814;9.918;2023-06-10T11:07:28;6.57;;;5.97;;
25049;SDS011;13046;49.814;9.918;2023-06-10T11:09:58;5.60;;;5.03;;
25049;SDS011;13046;49.814;9.918;2023-06-10T11:12:25;7.15;;;6.55;;
25049;SDS011;13046;49.814;9.918;2023-06-10T11:14:55;6.72;;;6.22;;
25049;SDS011;13046;49.814;9.918;2023-06-10T11:17:21;6.07;;;5.47;;
25049;SDS011;13046;49.814;9.918;2023-06-10T11:19:48;6.97;;;6.47;;
25049;SDS011;13046;49.814;9.918;2023-06-10T11:22:17;6.78;;;6.15;;
25049;SDS011;13046;49.814;9.918;2023-06-10T11:24:50;6.70;;;6.07;;
25049;SDS011;13046;49.814;9.918;2023-06-10T11:27:20;5.97;;;5.47;;
25049;SDS011;13046;49.814;9.918;2023-06-10T11:32:32;6.88;;;6.07;;
25049;SDS011;13046;49.814;9.918;2023-06-10T11:34:59;6.65;;;6.05;;
25049;SDS011;13046;49.814;9.918;2023-06-10T11:37:25;6.35;;;5.85;;
25049;SDS011;13046;49.814;9.918;2023-06-10T11:39:52;6.35;;;5.88;;
25049;SDS011;13046;49.814;9.918;2023-06-10T11:42:19;6.30;;;5.78;;
25049;SDS011;13046;49.814;9.918;2023-06-10T11:44:49;5.90;;;5.43;;
25049;SDS011;13046;49.814;9.918;2023-06-10T11:47:16;7.88;;;6.25;;
25049;SDS011;13046;49.814;9.918;2023-06-10T11:49:42;5.53;;;5.13;;
25049;SDS011;13046;49.814;9.918;2023-06-10T11:52:08;6.57;;;5.82;;
25049;SDS011;13046;49.814;9.918;2023-06-10T11:54:34;6.47;;;5.88;;
25049;SDS011;13046;49.814;9.918;2023-06-10T11:57:00;6.28;;;5.55;;
25049;SDS011;13046;49.814;9.918;2023-06-10T11:59:28;6.47;;;5.93;;
25049;SDS011;13046;49.814;9.918;2023-06-10T12:01:54;6.70;;;5.90;;
25049;SDS011;13046;49.814;9.918;2023-06-10T12:04:21;6.63;;;6.13;;
25049;SDS011;13046;49.814;9.918;2023-06-10T12:06:47;6.75;;;6.25;;
25049;SDS011;13046;49.814;9.918;2023-06-10T12:09:21;6.15;;;5.50;;
25049;SDS011;13046;49.814;9.918;2023-06-10T12:11:48;6.63;;;5.80;;
25049;SDS011;13046;49.814;9.918;2023-06-10T12:14:15;5.82;;;5.40;;
25049;SDS011;13046;49.814;9.918;2023-06-10T12:16:48;5.97;;;5.47;;
25049;SDS011;13046;49.814;9.918;2023-06-10T12:19:14;6.18;;;5.70;;
25049;SDS011;13046;49.814;9.918;2023-06-10T12:21:40;6.25;;;5.72;;
25049;SDS011;13046;49.814;9.918;2023-06-10T12:24:10;7.68;;;5.72;;
25049;SDS011;13046;49.814;9.918;2023-06-10T12:26:44;5.82;;;5.32;;
25049;SDS011;13046;49.814;9.918;2023-06-10T12:34:36;6.00;;;5.28;;
25049;SDS011;13046;49.814;9.918;2023-06-10T12:37:03;6.15;;;5.63;;
25049;SDS011;13046;49.814;9.918;2023-06-10T12:39:31;6.30;;;5.72;;
25049;SDS011;13046;49.814;9.918;2023-06-10T12:41:57;5.95;;;5.35;;
25049;SDS011;13046;49.814;9.918;2023-06-10T12:44:34;5.68;;;5.28;;
25049;SDS011;13046;49.814;9.918;2023-06-10T12:47:01;6.05;;;5.60;;
25049;SDS011;13046;49.814;9.918;2023-06-10T12:49:31;6.32;;;5.75;;
25049;SDS011;13046;49.814;9.918;2023-06-10T12:51:57;5.72;;;5.32;;
25049;SDS011;13046;49.814;9.918;2023-06-10T12:54:23;6.15;;;5.65;;
25049;SDS011;13046;49.814;9.918;2023-06-10T12:56:50;5.93;;;5.43;;
25049;SDS011;13046;49.814;9.918;2023-06-10T12:59:16;5.30;;;4.95;;
25049;SDS011;13046;49.814;9.918;2023-06-10T13:01:42;6.10;;;4.35;;
25049;SDS011;13046;49.814;9.918;2023-06-10T13:04:08;5.57;;;5.10;;
25049;SDS011;13046;49.814;9.918;2023-06-10T13:06:34;6.15;;;5.20;;
25049;SDS011;13046;49.814;9.918;2023-06-10T13:09:04;6.22;;;5.72;;
25049;SDS011;13046;49.814;9.918;2023-06-10T13:11:31;5.90;;;5.40;;
25049;SDS011;13046;49.814;9.918;2023-06-10T13:13:58;5.82;;;5.40;;
25049;SDS011;13046;49.814;9.918;2023-06-10T13:16:24;6.13;;;5.70;;
25049;SDS011;13046;49.814;9.918;2023-06-10T13:18:54;7.55;;;6.88;;
25049;SDS011;13046;49.814;9.918;2023-06-10T13:21:20;5.70;;;5.30;;
25049;SDS011;13046;49.814;9.918;2023-06-10T13:23:46;5.95;;;5.45;;
25049;SDS011;13046;49.814;9.918;2023-06-10T13:26:13;7.07;;;6.47;;
25049;SDS011;13046;49.814;9.918;2023-06-10T13:28:39;5.88;;;5.47;;
25049;SDS011;13046;49.814;9.918;2023-06-10T13:31:06;6.45;;;5.88;;
25049;SDS011;13046;49.814;9.918;2023-06-10T13:33:32;6.20;;;5.60;;
25049;SDS011;13046;49.814;9.918;2023-06-10T13:35:58;7.22;;;6.32;;
25049;SDS011;13046;49.814;9.918;2023-06-10T13:38:24;6.00;;;5.53;;
25049;SDS011;13046;49.814;9.918;2023-06-10T13:40:50;5.78;;;5.38;;
25049;SDS011;13046;49.814;9.918;2023-06-10T13:43:16;5.65;;;5.15;;
25049;SDS011;13046;49.814;9.918;2023-06-10T13:45:42;5.45;;;5.05;;
25049;SDS011;13046;49.814;9.918;2023-06-10T13:48:08;5.80;;;5.40;;
25049;SDS011;13046;49.814;9.918;2023-06-10T13:50:34;5.65;;;5.20;;
25049;SDS011;13046;49.814;9.918;2023-06-10T13:53:01;6.20;;;5.72;;
25049;SDS011;13046;49.814;9.918;2023-06-10T13:55:27;6.25;;;5.70;;
25049;SDS011;13046;49.814;9.918;2023-06-10T13:57:53;6.35;;;5.75;;
25049;SDS011;13046;49.814;9.918;2023-06-10T14:00:19;6.75;;;6.20;;
25049;SDS011;13046;49.814;9.918;2023-06-10T14:02:45;7.22;;;6.63;;
25049;SDS011;13046;49.814;9.918;2023-06-10T14:05:11;6.60;;;6.05;;
25049;SDS011;13046;49.814;9.918;2023-06-10T14:07:37;6.50;;;6.00;;
25049;SDS011;13046;49.814;9.918;2023-06-10T14:10:05;6.72;;;6.10;;
25049;SDS011;13046;49.814;9.918;2023-06-10T14:12:33;6.15;;;5.70;;
25049;SDS011;13046;49.814;9.918;2023-06-10T14:15:00;5.78;;;5.22;;
25049;SDS011;13046;49.814;9.918;2023-06-10T14:17:26;5.80;;;5.30;;
25049;SDS011;13046;49.814;9.918;2023-06-10T14:19:52;6.07;;;5.65;;
25049;SDS011;13046;49.814;9.918;2023-06-10T14:22:18;5.82;;;5.32;;
25049;SDS011;13046;49.814;9.918;2023-06-10T14:24:44;5.57;;;5.20;;
25049;SDS011;13046;49.814;9.918;2023-06-10T14:27:12;5.45;;;4.95;;
25049;SDS011;13046;49.814;9.918;2023-06-10T14:29:38;5.63;;;5.13;;
25049;SDS011;13046;49.814;9.918;2023-06-10T14:32:04;5.15;;;4.82;;
25049;SDS011;13046;49.814;9.918;2023-06-10T14:34:30;5.38;;;4.97;;
25049;SDS011;13046;49.814;9.918;2023-06-10T14:36:59;5.50;;;5.13;;
25049;SDS011;13046;49.814;9.918;2023-06-10T14:39:25;5.03;;;4.72;;
25049;SDS011;13046;49.814;9.918;2023-06-10T14:41:51;6.75;;;6.07;;
25049;SDS011;13046;49.814;9.918;2023-06-10T14:44:20;10.57;;;5.72;;
25049;SDS011;13046;49.814;9.918;2023-06-10T14:46:46;5.30;;;5.00;;